sensor_id;sensor_type;location;lat;lon;timestamp;pressure;altitude;pressure_sealevel;temperature;humidity
28167;BME280;15455;53.376;-6.262;2023-09-30T00:00:01;102101.25;;;8.47;100.00
28167;BME280;15455;53.376;-6.262;2023-09-30T00:02:54;102101.03;;;8.40;100.00
28167;BME280;15455;53.376;-6.262;2023-09-30T00:05:40;102099.16;;;8.35;100.00
28167;BME280;15455;53.376;-6.262;2023-09-30T00:08:25;102099.13;;;8.34;100.00
28167;BME280;15455;53.376;-6.262;2023-09-30T00:11:11;102103.50;;;8.35;100.00
28167;BME280;15455;53.376;-6.262;2023-09-30T00:13:56;102113.84;;;8.33;100.00
28167;BME280;15455;53.376;-6.262;2023-09-30T00:16:43;102108.53;;;8.30;100.00
28167;BME280;15455;53.376;-6.262;2023-09-30T00:19:30;102104.97;;;8.27;100.00
28167;BME280;15455;53.376;-6.262;2023-09-30T00:22:17;102099.03;;;8.31;100.00
28167;BME280;15455;53.376;-6.262;2023-09-30T00:25:03;102123.22;;;8.28;100.00
28167;BME280;15455;53.376;-6.262;2023-09-30T00:27:49;102124.69;;;8.18;100.00
28167;BME280;15455;53.376;-6.262;2023-09-30T00:30:34;102114.06;;;8.11;100.00
28167;BME280;15455;53.376;-6.262;2023-09-30T00:33:21;102120.78;;;8.04;100.00
28167;BME280;15455;53.376;-6.262;2023-09-30T00:36:10;102121.44;;;7.97;100.00
28167;BME280;15455;53.376;-6.262;2023-09-30T00:38:58;102125.66;;;7.93;100.00
28167;BME280;15455;53.376;-6.262;2023-09-30T00:41:44;102120.34;;;7.89;100.00
28167;BME280;15455;53.376;-6.262;2023-09-30T00:44:29;102119.31;;;7.83;100.00
28167;BME280;15455;53.376;-6.262;2023-09-30T00:47:15;102116.56;;;7.79;100.00
28167;BME280;15455;53.376;-6.262;2023-09-30T00:50:01;102129.50;;;7.77;100.00
28167;BME280;15455;53.376;-6.262;2023-09-30T00:52:49;102135.53;;;7.76;100.00
28167;BME280;15455;53.376;-6.262;2023-09-30T00:55:35;102123.38;;;7.75;100.00
28167;BME280;15455;53.376;-6.262;2023-09-30T00:58:23;102119.34;;;7.85;100.00
28167;BME280;15455;53.376;-6.262;2023-09-30T01:01:11;102117.13;;;7.97;100.00
28167;BME280;15455;53.376;-6.262;2023-09-30T01:03:57;102100.63;;;7.97;100.00
28167;BME280;15455;53.376;-6.262;2023-09-30T01:06:45;102090.78;;;7.87;100.00
28167;BME280;15455;53.376;-6.262;2023-09-30T01:09:30;102099.19;;;7.78;100.00
28167;BME280;15455;53.376;-6.262;2023-09-30T01:12:16;102106.72;;;7.69;100.00
28167;BME280;15455;53.376;-6.262;2023-09-30T01:15:02;102110.91;;;7.65;100.00
28167;BME280;15455;53.376;-6.262;2023-09-30T01:17:52;102098.94;;;7.69;100.00
28167;BME280;15455;53.376;-6.262;2023-09-30T01:20:38;102116.47;;;7.76;100.00
28167;BME280;15455;53.376;-6.262;2023-09-30T01:23:24;102123.22;;;7.71;100.00
28167;BME280;15455;53.376;-6.262;2023-09-30T01:26:11;102122.78;;;7.57;100.00
28167;BME280;15455;53.376;-6.262;2023-09-30T01:28:57;102123.50;;;7.51;100.00
28167;BME280;15455;53.376;-6.262;2023-09-30T01:31:43;102124.31;;;7.50;100.00
28167;BME280;15455;53.376;-6.262;2023-09-30T01:34:28;102134.63;;;7.47;100.00
28167;BME280;15455;53.376;-6.262;2023-09-30T01:37:14;102130.03;;;7.40;100.00
28167;BME280;15455;53.376;-6.262;2023-09-30T01:40:00;102134.25;;;7.36;100.00
28167;BME280;15455;53.376;-6.262;2023-09-30T01:42:46;102135.63;;;7.26;100.00
28167;BME280;15455;53.376;-6.262;2023-09-30T01:45:31;102138.00;;;7.19;100.00
28167;BME280;15455;53.376;-6.262;2023-09-30T01:48:17;102134.38;;;7.13;100.00
28167;BME280;15455;53.376;-6.262;2023-09-30T01:51:03;102118.66;;;7.10;100.00
28167;BME280;15455;53.376;-6.262;2023-09-30T01:53:48;102113.28;;;7.04;100.00
28167;BME280;15455;53.376;-6.262;2023-09-30T01:56:34;102107.22;;;7.04;100.00
28167;BME280;15455;53.376;-6.262;2023-09-30T01:59:20;102107.16;;;7.02;100.00
28167;BME280;15455;53.376;-6.262;2023-09-30T02:02:06;102113.13;;;7.00;100.00
28167;BME280;15455;53.376;-6.262;2023-09-30T02:04:51;102105.19;;;6.95;100.00
28167;BME280;15455;53.376;-6.262;2023-09-30T02:07:38;102102.41;;;6.90;100.00
28167;BME280;15455;53.376;-6.262;2023-09-30T02:10:24;102109.16;;;6.85;100.00
28167;BME280;15455;53.376;-6.262;2023-09-30T02:13:09;102116.44;;;6.95;100.00
28167;BME280;15455;53.376;-6.262;2023-09-30T02:15:54;102112.59;;;7.10;100.00
28167;BME280;15455;53.376;-6.262;2023-09-30T02:18:43;102112.41;;;7.04;100.00
28167;BME280;15455;53.376;-6.262;2023-09-30T02:21:32;102101.69;;;6.94;100.00
28167;BME280;15455;53.376;-6.262;2023-09-30T02:24:18;102101.59;;;6.91;100.00
28167;BME280;15455;53.376;-6.262;2023-09-30T02:27:04;102100.91;;;6.97;100.00
28167;BME280;15455;53.376;-6.262;2023-09-30T02:29:49;102111.44;;;7.02;100.00
28167;BME280;15455;53.376;-6.262;2023-09-30T02:32:37;102114.53;;;7.16;100.00
28167;BME280;15455;53.376;-6.262;2023-09-30T02:35:23;102106.06;;;7.21;100.00
28167;BME280;15455;53.376;-6.262;2023-09-30T02:38:09;102103.66;;;7.27;100.00
28167;BME280;15455;53.376;-6.262;2023-09-30T02:40:56;102102.06;;;7.31;100.00
28167;BME280;15455;53.376;-6.262;2023-09-30T02:43:41;102093.53;;;7.35;100.00
28167;BME280;15455;53.376;-6.262;2023-09-30T02:46:27;102089.31;;;7.39;100.00
28167;BME280;15455;53.376;-6.262;2023-09-30T02:49:15;102086.81;;;7.42;100.00
28167;BME280;15455;53.376;-6.262;2023-09-30T02:52:01;102097.56;;;7.53;100.00
28167;BME280;15455;53.376;-6.262;2023-09-30T02:54:46;102087.84;;;7.47;100.00
28167;BME280;15455;53.376;-6.262;2023-09-30T02:57:32;102086.81;;;7.42;100.00
28167;BME280;15455;53.376;-6.262;2023-09-30T03:00:18;102085.94;;;7.41;100.00
28167;BME280;15455;53.376;-6.262;2023-09-30T03:03:11;102080.97;;;7.49;100.00
28167;BME280;15455;53.376;-6.262;2023-09-30T03:05:57;102076.31;;;7.66;100.00
28167;BME280;15455;53.376;-6.262;2023-09-30T03:08:42;102082.81;;;7.80;100.00
28167;BME280;15455;53.376;-6.262;2023-09-30T03:11:28;102068.47;;;7.93;100.00
28167;BME280;15455;53.376;-6.262;2023-09-30T03:14:15;102057.38;;;7.99;100.00
28167;BME280;15455;53.376;-6.262;2023-09-30T03:17:00;102069.69;;;8.05;100.00
28167;BME280;15455;53.376;-6.262;2023-09-30T03:19:46;102072.38;;;8.08;100.00
28167;BME280;15455;53.376;-6.262;2023-09-30T03:22:32;102069.78;;;8.08;100.00
28167;BME280;15455;53.376;-6.262;2023-09-30T03:25:19;102050.66;;;8.07;100.00
28167;BME280;15455;53.376;-6.262;2023-09-30T03:28:05;102044.50;;;8.04;100.00
28167;BME280;15455;53.376;-6.262;2023-09-30T03:30:51;102046.25;;;8.03;100.00
28167;BME280;15455;53.376;-6.262;2023-09-30T03:33:38;102030.44;;;7.97;100.00
28167;BME280;15455;53.376;-6.262;2023-09-30T03:36:24;102024.22;;;7.90;100.00
28167;BME280;15455;53.376;-6.262;2023-09-30T03:39:10;102024.88;;;7.83;100.00
28167;BME280;15455;53.376;-6.262;2023-09-30T03:42:00;102020.44;;;7.80;100.00
28167;BME280;15455;53.376;-6.262;2023-09-30T03:44:46;102022.09;;;7.78;100.00
28167;BME280;15455;53.376;-6.262;2023-09-30T03:47:37;102018.63;;;7.78;100.00
28167;BME280;15455;53.376;-6.262;2023-09-30T03:50:23;102025.72;;;7.83;100.00
28167;BME280;15455;53.376;-6.262;2023-09-30T03:53:10;102032.78;;;7.88;100.00
28167;BME280;15455;53.376;-6.262;2023-09-30T03:55:55;102041.53;;;7.91;100.00
28167;BME280;15455;53.376;-6.262;2023-09-30T03:58:42;102045.09;;;7.93;100.00
28167;BME280;15455;53.376;-6.262;2023-09-30T04:01:28;102049.53;;;7.97;100.00
28167;BME280;15455;53.376;-6.262;2023-09-30T04:04:14;102035.84;;;8.03;100.00
28167;BME280;15455;53.376;-6.262;2023-09-30T04:06:59;102051.47;;;8.05;100.00
28167;BME280;15455;53.376;-6.262;2023-09-30T04:09:45;102048.22;;;8.12;100.00
28167;BME280;15455;53.376;-6.262;2023-09-30T04:12:30;102042.25;;;8.16;100.00
28167;BME280;15455;53.376;-6.262;2023-09-30T04:15:18;102044.97;;;8.19;100.00
28167;BME280;15455;53.376;-6.262;2023-09-30T04:18:04;102047.59;;;8.21;100.00
28167;BME280;15455;53.376;-6.262;2023-09-30T04:20:53;102047.44;;;8.16;100.00
28167;BME280;15455;53.376;-6.262;2023-09-30T04:23:38;102040.38;;;8.10;100.00
28167;BME280;15455;53.376;-6.262;2023-09-30T04:26:24;102042.06;;;8.10;100.00
28167;BME280;15455;53.376;-6.262;2023-09-30T04:29:10;102030.66;;;8.03;100.00
28167;BME280;15455;53.376;-6.262;2023-09-30T04:31:56;102030.47;;;7.98;100.00
28167;BME280;15455;53.376;-6.262;2023-09-30T04:34:42;102016.56;;;7.96;100.00
28167;BME280;15455;53.376;-6.262;2023-09-30T04:37:31;102017.28;;;7.91;100.00
28167;BME280;15455;53.376;-6.262;2023-09-30T04:40:17;102015.41;;;7.87;100.00
28167;BME280;15455;53.376;-6.262;2023-09-30T04:43:05;102003.41;;;7.90;100.00
28167;BME280;15455;53.376;-6.262;2023-09-30T04:45:51;101996.41;;;7.88;100.00
28167;BME280;15455;53.376;-6.262;2023-09-30T04:48:39;101994.66;;;7.88;100.00
28167;BME280;15455;53.376;-6.262;2023-09-30T04:51:25;101980.88;;;7.91;100.00
28167;BME280;15455;53.376;-6.262;2023-09-30T04:54:11;101983.56;;;7.94;100.00
28167;BME280;15455;53.376;-6.262;2023-09-30T04:56:56;101986.91;;;7.90;100.00
28167;BME280;15455;53.376;-6.262;2023-09-30T04:59:42;101980.09;;;7.93;100.00
28167;BME280;15455;53.376;-6.262;2023-09-30T05:02:28;101978.28;;;7.91;100.00
28167;BME280;15455;53.376;-6.262;2023-09-30T05:05:13;101977.38;;;7.89;100.00
28167;BME280;15455;53.376;-6.262;2023-09-30T05:08:01;101978.06;;;7.83;100.00
28167;BME280;15455;53.376;-6.262;2023-09-30T05:10:47;101983.13;;;7.78;100.00
28167;BME280;15455;53.376;-6.262;2023-09-30T05:13:33;101984.94;;;7.81;100.00
28167;BME280;15455;53.376;-6.262;2023-09-30T05:16:22;101984.84;;;7.78;100.00
28167;BME280;15455;53.376;-6.262;2023-09-30T05:19:07;101990.09;;;7.79;100.00
28167;BME280;15455;53.376;-6.262;2023-09-30T05:21:52;101993.50;;;7.78;100.00
28167;BME280;15455;53.376;-6.262;2023-09-30T05:24:38;101993.66;;;7.83;100.00
28167;BME280;15455;53.376;-6.262;2023-09-30T05:27:23;101992.06;;;7.88;100.00
28167;BME280;15455;53.376;-6.262;2023-09-30T05:30:09;101992.94;;;7.87;100.00
28167;BME280;15455;53.376;-6.262;2023-09-30T05:32:56;101997.34;;;7.91;100.00
28167;BME280;15455;53.376;-6.262;2023-09-30T05:35:41;101994.00;;;7.95;100.00
28167;BME280;15455;53.376;-6.262;2023-09-30T05:38:27;101990.56;;;7.96;100.00
28167;BME280;15455;53.376;-6.262;2023-09-30T05:41:14;101988.84;;;7.97;100.00
28167;BME280;15455;53.376;-6.262;2023-09-30T05:44:00;101990.66;;;7.99;100.00
28167;BME280;15455;53.376;-6.262;2023-09-30T05:46:46;101987.34;;;8.05;100.00
28167;BME280;15455;53.376;-6.262;2023-09-30T05:49:31;101988.47;;;8.13;100.00
28167;BME280;15455;53.376;-6.262;2023-09-30T05:52:17;102005.09;;;8.20;100.00
28167;BME280;15455;53.376;-6.262;2023-09-30T05:55:02;101995.66;;;8.24;100.00
28167;BME280;15455;53.376;-6.262;2023-09-30T05:57:48;102002.69;;;8.26;100.00
28167;BME280;15455;53.376;-6.262;2023-09-30T06:00:41;102004.47;;;8.29;100.00
28167;BME280;15455;53.376;-6.262;2023-09-30T06:03:27;102012.38;;;8.32;100.00
28167;BME280;15455;53.376;-6.262;2023-09-30T06:06:15;102018.59;;;8.39;100.00
28167;BME280;15455;53.376;-6.262;2023-09-30T06:09:01;102019.53;;;8.41;100.00
28167;BME280;15455;53.376;-6.262;2023-09-30T06:11:46;102017.81;;;8.41;100.00
28167;BME280;15455;53.376;-6.262;2023-09-30T06:14:32;102013.53;;;8.43;100.00
28167;BME280;15455;53.376;-6.262;2023-09-30T06:17:18;102015.34;;;8.46;100.00
28167;BME280;15455;53.376;-6.262;2023-09-30T06:20:08;102007.56;;;8.46;100.00
28167;BME280;15455;53.376;-6.262;2023-09-30T06:23:01;102005.00;;;8.47;100.00
28167;BME280;15455;53.376;-6.262;2023-09-30T06:25:47;102006.75;;;8.48;100.00
28167;BME280;15455;53.376;-6.262;2023-09-30T06:28:32;101999.94;;;8.54;100.00
28167;BME280;15455;53.376;-6.262;2023-09-30T06:31:24;102002.53;;;8.54;100.00
28167;BME280;15455;53.376;-6.262;2023-09-30T06:34:10;101993.97;;;8.58;100.00
28167;BME280;15455;53.376;-6.262;2023-09-30T06:36:56;101996.66;;;8.61;100.00
28167;BME280;15455;53.376;-6.262;2023-09-30T06:39:42;101995.00;;;8.63;100.00
28167;BME280;15455;53.376;-6.262;2023-09-30T06:42:27;101983.75;;;8.64;100.00
28167;BME280;15455;53.376;-6.262;2023-09-30T06:45:13;101977.72;;;8.66;100.00
28167;BME280;15455;53.376;-6.262;2023-09-30T06:47:59;101969.91;;;8.66;100.00
28167;BME280;15455;53.376;-6.262;2023-09-30T06:50:45;101970.00;;;8.69;100.00
28167;BME280;15455;53.376;-6.262;2023-09-30T06:53:33;101970.91;;;8.72;100.00
28167;BME280;15455;53.376;-6.262;2023-09-30T06:56:19;101961.41;;;8.74;100.00
28167;BME280;15455;53.376;-6.262;2023-09-30T06:59:04;101963.22;;;8.76;100.00
28167;BME280;15455;53.376;-6.262;2023-09-30T07:01:51;101971.09;;;8.79;100.00
28167;BME280;15455;53.376;-6.262;2023-09-30T07:04:37;101961.66;;;8.83;100.00
28167;BME280;15455;53.376;-6.262;2023-09-30T07:07:23;101949.53;;;8.85;100.00
28167;BME280;15455;53.376;-6.262;2023-09-30T07:10:09;101949.63;;;8.88;100.00
28167;BME280;15455;53.376;-6.262;2023-09-30T07:12:55;101941.94;;;8.93;100.00
28167;BME280;15455;53.376;-6.262;2023-09-30T07:15:40;101942.00;;;8.96;100.00
28167;BME280;15455;53.376;-6.262;2023-09-30T07:18:26;101945.50;;;8.98;100.00
28167;BME280;15455;53.376;-6.262;2023-09-30T07:21:13;101943.00;;;9.02;100.00
28167;BME280;15455;53.376;-6.262;2023-09-30T07:23:58;101937.06;;;9.08;100.00
28167;BME280;15455;53.376;-6.262;2023-09-30T07:26:44;101934.56;;;9.13;100.00
28167;BME280;15455;53.376;-6.262;2023-09-30T07:29:29;101934.72;;;9.19;100.00
28167;BME280;15455;53.376;-6.262;2023-09-30T07:32:14;101933.94;;;9.23;100.00
28167;BME280;15455;53.376;-6.262;2023-09-30T07:35:00;101941.03;;;9.29;100.00
28167;BME280;15455;53.376;-6.262;2023-09-30T07:37:46;101931.56;;;9.34;100.00
28167;BME280;15455;53.376;-6.262;2023-09-30T07:40:32;101937.75;;;9.39;100.00
28167;BME280;15455;53.376;-6.262;2023-09-30T07:43:18;101936.16;;;9.46;100.00
28167;BME280;15455;53.376;-6.262;2023-09-30T07:46:06;101946.75;;;9.53;100.00
28167;BME280;15455;53.376;-6.262;2023-09-30T07:48:54;101941.66;;;9.60;100.00
28167;BME280;15455;53.376;-6.262;2023-09-30T07:51:40;101942.63;;;9.65;100.00
28167;BME280;15455;53.376;-6.262;2023-09-30T07:54:26;101942.81;;;9.72;100.00
28167;BME280;15455;53.376;-6.262;2023-09-30T07:57:16;101945.56;;;9.80;100.00
28167;BME280;15455;53.376;-6.262;2023-09-30T08:00:02;101952.63;;;9.86;100.00
28167;BME280;15455;53.376;-6.262;2023-09-30T08:02:54;101947.53;;;9.94;100.00
28167;BME280;15455;53.376;-6.262;2023-09-30T08:05:40;101945.06;;;10.00;100.00
28167;BME280;15455;53.376;-6.262;2023-09-30T08:08:26;101948.66;;;10.06;100.00
28167;BME280;15455;53.376;-6.262;2023-09-30T08:11:11;101954.00;;;10.11;100.00
28167;BME280;15455;53.376;-6.262;2023-09-30T08:13:57;101954.97;;;10.18;100.00
28167;BME280;15455;53.376;-6.262;2023-09-30T08:16:44;101944.72;;;10.27;100.00
28167;BME280;15455;53.376;-6.262;2023-09-30T08:19:29;101940.41;;;10.31;100.00
28167;BME280;15455;53.376;-6.262;2023-09-30T08:22:15;101945.78;;;10.38;100.00
28167;BME280;15455;53.376;-6.262;2023-09-30T08:25:00;101937.19;;;10.44;100.00
28167;BME280;15455;53.376;-6.262;2023-09-30T08:27:46;101939.06;;;10.51;100.00
28167;BME280;15455;53.376;-6.262;2023-09-30T08:30:36;101923.53;;;10.59;100.00
28167;BME280;15455;53.376;-6.262;2023-09-30T08:33:22;101921.03;;;10.67;100.00
28167;BME280;15455;53.376;-6.262;2023-09-30T08:36:07;101917.69;;;10.74;100.00
28167;BME280;15455;53.376;-6.262;2023-09-30T08:38:53;101924.78;;;10.83;100.00
28167;BME280;15455;53.376;-6.262;2023-09-30T08:41:39;101934.47;;;10.91;100.00
28167;BME280;15455;53.376;-6.262;2023-09-30T08:44:25;101934.63;;;10.99;100.00
28167;BME280;15455;53.376;-6.262;2023-09-30T08:47:11;101933.00;;;11.09;100.00
28167;BME280;15455;53.376;-6.262;2023-09-30T08:49:59;101931.38;;;11.16;100.00
28167;BME280;15455;53.376;-6.262;2023-09-30T08:52:52;101925.34;;;11.21;100.00
28167;BME280;15455;53.376;-6.262;2023-09-30T08:55:39;101925.41;;;11.26;100.00
28167;BME280;15455;53.376;-6.262;2023-09-30T08:58:27;101922.81;;;11.29;100.00
28167;BME280;15455;53.376;-6.262;2023-09-30T09:01:15;101919.38;;;11.32;100.00
28167;BME280;15455;53.376;-6.262;2023-09-30T09:04:00;101915.13;;;11.38;100.00
28167;BME280;15455;53.376;-6.262;2023-09-30T09:06:46;101924.81;;;11.45;100.00
28167;BME280;15455;53.376;-6.262;2023-09-30T09:09:32;101930.13;;;11.53;100.00
28167;BME280;15455;53.376;-6.262;2023-09-30T09:12:19;101927.59;;;11.61;100.00
28167;BME280;15455;53.376;-6.262;2023-09-30T09:15:07;101933.78;;;11.66;100.00
28167;BME280;15455;53.376;-6.262;2023-09-30T09:17:53;101925.97;;;11.71;100.00
28167;BME280;15455;53.376;-6.262;2023-09-30T09:20:39;101926.91;;;11.74;100.00
28167;BME280;15455;53.376;-6.262;2023-09-30T09:23:24;101930.44;;;11.79;100.00
28167;BME280;15455;53.376;-6.262;2023-09-30T09:29:09;101922.63;;;11.84;100.00
28167;BME280;15455;53.376;-6.262;2023-09-30T09:32:09;101924.38;;;11.82;100.00
28167;BME280;15455;53.376;-6.262;2023-09-30T09:35:00;101912.13;;;11.81;100.00
28167;BME280;15455;53.376;-6.262;2023-09-30T09:37:57;101904.28;;;11.81;100.00
28167;BME280;15455;53.376;-6.262;2023-09-30T09:40:42;101888.59;;;11.79;100.00
28167;BME280;15455;53.376;-6.262;2023-09-30T09:43:31;101880.72;;;11.78;100.00
28167;BME280;15455;53.376;-6.262;2023-09-30T09:46:19;101882.47;;;11.76;100.00
28167;BME280;15455;53.376;-6.262;2023-09-30T09:49:05;101880.69;;;11.75;100.00
28167;BME280;15455;53.376;-6.262;2023-09-30T09:51:52;101869.38;;;11.76;100.00
28167;BME280;15455;53.376;-6.262;2023-09-30T09:54:39;101871.09;;;11.75;100.00
28167;BME280;15455;53.376;-6.262;2023-09-30T09:57:27;101861.53;;;11.76;100.00
28167;BME280;15455;53.376;-6.262;2023-09-30T10:00:16;101858.97;;;11.80;100.00
28167;BME280;15455;53.376;-6.262;2023-09-30T10:03:03;101859.00;;;11.84;100.00
28167;BME280;15455;53.376;-6.262;2023-09-30T10:05:49;101864.25;;;11.87;100.00
28167;BME280;15455;53.376;-6.262;2023-09-30T10:08:38;101855.53;;;11.88;100.00
28167;BME280;15455;53.376;-6.262;2023-09-30T10:11:25;101857.31;;;11.90;100.00
28167;BME280;15455;53.376;-6.262;2023-09-30T10:14:29;101850.34;;;11.92;100.00
28167;BME280;15455;53.376;-6.262;2023-09-30T10:17:15;101832.91;;;11.93;100.00
28167;BME280;15455;53.376;-6.262;2023-09-30T10:20:06;101825.06;;;11.93;100.00
28167;BME280;15455;53.376;-6.262;2023-09-30T10:23:18;101819.81;;;11.93;100.00
28167;BME280;15455;53.376;-6.262;2023-09-30T10:29:09;101787.59;;;11.94;100.00
28167;BME280;15455;53.376;-6.262;2023-09-30T10:31:55;101785.91;;;11.96;100.00
28167;BME280;15455;53.376;-6.262;2023-09-30T10:34:47;101792.00;;;11.96;100.00
28167;BME280;15455;53.376;-6.262;2023-09-30T10:37:34;101780.69;;;11.99;100.00
28167;BME280;15455;53.376;-6.262;2023-09-30T10:40:27;101800.75;;;12.02;100.00
28167;BME280;15455;53.376;-6.262;2023-09-30T10:43:33;101802.53;;;12.04;100.00
28167;BME280;15455;53.376;-6.262;2023-09-30T10:49:16;101799.94;;;12.07;100.00
28167;BME280;15455;53.376;-6.262;2023-09-30T10:52:05;101802.56;;;12.09;100.00
28167;BME280;15455;53.376;-6.262;2023-09-30T10:54:51;101800.84;;;12.09;100.00
28167;BME280;15455;53.376;-6.262;2023-09-30T10:57:37;101802.59;;;12.12;100.00
28167;BME280;15455;53.376;-6.262;2023-09-30T11:00:23;101796.47;;;12.11;100.00
28167;BME280;15455;53.376;-6.262;2023-09-30T11:03:11;101797.38;;;12.12;100.00
28167;BME280;15455;53.376;-6.262;2023-09-30T11:05:57;101793.00;;;12.12;100.00
28167;BME280;15455;53.376;-6.262;2023-09-30T11:08:57;101788.63;;;12.13;100.00
28167;BME280;15455;53.376;-6.262;2023-09-30T11:11:49;101786.91;;;12.12;100.00
28167;BME280;15455;53.376;-6.262;2023-09-30T11:14:35;101786.00;;;12.11;100.00
28167;BME280;15455;53.376;-6.262;2023-09-30T11:17:22;101782.53;;;12.11;100.00
28167;BME280;15455;53.376;-6.262;2023-09-30T11:20:08;101770.28;;;12.08;100.00
28167;BME280;15455;53.376;-6.262;2023-09-30T11:22:55;101774.63;;;12.05;100.00
28167;BME280;15455;53.376;-6.262;2023-09-30T11:25:41;101778.06;;;11.96;100.00
28167;BME280;15455;53.376;-6.262;2023-09-30T11:28:39;101777.03;;;11.81;100.00
28167;BME280;15455;53.376;-6.262;2023-09-30T11:31:28;101778.66;;;11.70;100.00
28167;BME280;15455;53.376;-6.262;2023-09-30T11:34:18;101768.09;;;11.61;100.00
28167;BME280;15455;53.376;-6.262;2023-09-30T11:37:04;101759.34;;;11.56;100.00
28167;BME280;15455;53.376;-6.262;2023-09-30T11:40:08;101757.56;;;11.52;100.00
28167;BME280;15455;53.376;-6.262;2023-09-30T11:43:07;101746.16;;;11.46;100.00
28167;BME280;15455;53.376;-6.262;2023-09-30T11:46:10;101739.16;;;11.42;100.00
28167;BME280;15455;53.376;-6.262;2023-09-30T11:48:58;101730.41;;;11.39;100.00
28167;BME280;15455;53.376;-6.262;2023-09-30T11:51:45;101725.19;;;11.37;100.00
28167;BME280;15455;53.376;-6.262;2023-09-30T11:54:36;101712.97;;;11.38;100.00
28167;BME280;15455;53.376;-6.262;2023-09-30T11:57:29;101703.41;;;11.37;100.00
28167;BME280;15455;53.376;-6.262;2023-09-30T12:00:16;101706.88;;;11.39;100.00
28167;BME280;15455;53.376;-6.262;2023-09-30T12:03:02;101706.03;;;11.40;100.00
28167;BME280;15455;53.376;-6.262;2023-09-30T12:05:48;101705.16;;;11.42;100.00
28167;BME280;15455;53.376;-6.262;2023-09-30T12:08:34;101687.75;;;11.41;100.00
28167;BME280;15455;53.376;-6.262;2023-09-30T12:11:19;101679.00;;;11.41;100.00
28167;BME280;15455;53.376;-6.262;2023-09-30T12:14:05;101672.06;;;11.41;100.00
28167;BME280;15455;53.376;-6.262;2023-09-30T12:16:51;101660.72;;;11.41;100.00
28167;BME280;15455;53.376;-6.262;2023-09-30T12:19:37;101655.50;;;11.41;100.00
28167;BME280;15455;53.376;-6.262;2023-09-30T12:22:23;101641.53;;;11.39;100.00
28167;BME280;15455;53.376;-6.262;2023-09-30T12:25:08;101633.69;;;11.37;100.00
28167;BME280;15455;53.376;-6.262;2023-09-30T12:27:54;101631.09;;;11.39;100.00
28167;BME280;15455;53.376;-6.262;2023-09-30T12:30:41;101629.34;;;11.39;100.00
28167;BME280;15455;53.376;-6.262;2023-09-30T12:33:26;101615.41;;;11.39;100.00
28167;BME280;15455;53.376;-6.262;2023-09-30T12:36:13;101629.34;;;11.39;100.00
28167;BME280;15455;53.376;-6.262;2023-09-30T12:38:58;101612.81;;;11.42;100.00
28167;BME280;15455;53.376;-6.262;2023-09-30T12:41:44;101609.38;;;11.47;100.00
28167;BME280;15455;53.376;-6.262;2023-09-30T12:44:31;101592.03;;;11.56;100.00
28167;BME280;15455;53.376;-6.262;2023-09-30T12:47:17;101598.16;;;11.62;100.00
28167;BME280;15455;53.376;-6.262;2023-09-30T12:50:02;101575.53;;;11.68;100.00
28167;BME280;15455;53.376;-6.262;2023-09-30T12:52:48;101577.31;;;11.75;100.00
28167;BME280;15455;53.376;-6.262;2023-09-30T12:55:34;101565.13;;;11.78;100.00
28167;BME280;15455;53.376;-6.262;2023-09-30T12:58:20;101561.66;;;11.82;100.00
28167;BME280;15455;53.376;-6.262;2023-09-30T13:01:06;101550.34;;;11.85;100.00
28167;BME280;15455;53.376;-6.262;2023-09-30T13:04:06;101545.13;;;11.90;100.00
28167;BME280;15455;53.376;-6.262;2023-09-30T13:06:53;101539.91;;;11.90;100.00
28167;BME280;15455;53.376;-6.262;2023-09-30T13:09:41;101531.22;;;11.92;100.00
28167;BME280;15455;53.376;-6.262;2023-09-30T13:12:27;101526.00;;;11.94;100.00
28167;BME280;15455;53.376;-6.262;2023-09-30T13:15:12;101536.47;;;11.97;100.00
28167;BME280;15455;53.376;-6.262;2023-09-30T13:17:59;101532.16;;;12.02;100.00
28167;BME280;15455;53.376;-6.262;2023-09-30T13:20:44;101528.69;;;12.06;100.00
28167;BME280;15455;53.376;-6.262;2023-09-30T13:23:30;101523.47;;;12.09;100.00
28167;BME280;15455;53.376;-6.262;2023-09-30T13:26:15;101500.78;;;12.13;100.00
28167;BME280;15455;53.376;-6.262;2023-09-30T13:29:01;101503.41;;;12.18;100.00
28167;BME280;15455;53.376;-6.262;2023-09-30T13:31:46;101499.06;;;12.20;100.00
28167;BME280;15455;53.376;-6.262;2023-09-30T13:34:32;101480.75;;;12.20;100.00
28167;BME280;15455;53.376;-6.262;2023-09-30T13:37:17;101479.00;;;12.19;100.00
28167;BME280;15455;53.376;-6.262;2023-09-30T13:40:03;101483.38;;;12.18;100.00
28167;BME280;15455;53.376;-6.262;2023-09-30T13:42:53;101483.38;;;12.20;100.00
28167;BME280;15455;53.376;-6.262;2023-09-30T13:45:39;101466.78;;;12.18;100.00
28167;BME280;15455;53.376;-6.262;2023-09-30T13:48:25;101436.25;;;12.16;100.00
28167;BME280;15455;53.376;-6.262;2023-09-30T13:51:11;101431.91;;;12.17;100.00
28167;BME280;15455;53.376;-6.262;2023-09-30T13:53:56;101429.28;;;12.22;100.00
28167;BME280;15455;53.376;-6.262;2023-09-30T13:56:42;101424.94;;;12.24;100.00
28167;BME280;15455;53.376;-6.262;2023-09-30T13:59:29;101435.41;;;12.27;100.00
28167;BME280;15455;53.376;-6.262;2023-09-30T14:02:14;101430.16;;;12.25;100.00
28167;BME280;15455;53.376;-6.262;2023-09-30T14:05:00;101420.56;;;12.26;100.00
28167;BME280;15455;53.376;-6.262;2023-09-30T14:07:46;101416.22;;;12.28;100.00
28167;BME280;15455;53.376;-6.262;2023-09-30T14:10:32;101430.16;;;12.30;100.00
28167;BME280;15455;53.376;-6.262;2023-09-30T14:13:18;101418.84;;;12.34;100.00
28167;BME280;15455;53.376;-6.262;2023-09-30T14:16:04;101407.50;;;12.38;100.00
28167;BME280;15455;53.376;-6.262;2023-09-30T14:18:51;101396.16;;;12.44;100.00
28167;BME280;15455;53.376;-6.262;2023-09-30T14:21:37;101398.78;;;12.48;100.00
28167;BME280;15455;53.376;-6.262;2023-09-30T14:24:23;101403.16;;;12.49;100.00